createdAt,value
2022-09-27T00:02:02.682Z,10.48
2022-09-27T00:04:36.890Z,11.63
2022-09-27T00:07:11.563Z,12.18
2022-09-27T00:09:46.933Z,11.13
2022-09-27T00:12:20.950Z,12.70
2022-09-27T00:14:55.003Z,12.30
2022-09-27T00:17:29.019Z,12.55
2022-09-27T00:20:04.065Z,11.40
2022-09-27T00:22:38.577Z,10.70
2022-09-27T00:25:14.002Z,11.57
2022-09-27T00:27:47.974Z,10.35
2022-09-27T00:30:21.983Z,13.57
2022-09-27T00:32:55.963Z,11.43
2022-09-27T00:35:30.100Z,11.63
2022-09-27T00:38:04.063Z,17.73
2022-09-27T00:40:39.625Z,12.98
2022-09-27T00:43:19.101Z,12.93
2022-09-27T00:45:56.513Z,14.15
2022-09-27T00:48:33.880Z,11.05
2022-09-27T00:51:11.067Z,10.30
2022-09-27T00:53:51.699Z,14.88
2022-09-27T00:56:30.711Z,14.32
2022-09-27T00:59:10.760Z,12.73
2022-09-27T01:01:45.541Z,12.77
2022-09-27T01:04:24.255Z,12.50
2022-09-27T01:06:58.503Z,12.82
2022-09-27T01:09:32.881Z,15.55
2022-09-27T01:12:22.257Z,14.60
2022-09-27T01:15:09.701Z,11.65
2022-09-27T01:17:55.891Z,14.77
2022-09-27T01:21:09.007Z,11.77
2022-09-27T01:24:09.901Z,13.48
2022-09-27T01:27:18.175Z,12.50
2022-09-27T01:30:05.751Z,11.57
2022-09-27T01:32:52.337Z,13.88
2022-09-27T01:35:36.851Z,11.95
2022-09-27T01:38:17.825Z,14.73
2022-09-27T01:41:00.935Z,12.23
2022-09-27T01:44:00.921Z,12.25
2022-09-27T01:46:41.939Z,11.82
2022-09-27T01:49:40.921Z,11.98
2022-09-27T01:52:19.762Z,14.95
2022-09-27T01:55:01.675Z,12.02
2022-09-27T01:57:50.652Z,10.93
2022-09-27T02:00:30.963Z,11.35
2022-09-27T02:03:12.027Z,10.90
2022-09-27T02:05:49.405Z,14.10
2022-09-27T02:08:51.656Z,11.23
2022-09-27T02:11:56.639Z,13.82
2022-09-27T02:14:36.360Z,13.85
2022-09-27T02:17:20.156Z,14.63
2022-09-27T02:20:03.890Z,13.65
2022-09-27T02:22:53.187Z,10.93
2022-09-27T02:25:35.015Z,10.63
2022-09-27T02:28:15.374Z,11.35
2022-09-27T02:30:49.544Z,12.48
2022-09-27T02:33:34.792Z,11.00
2022-09-27T02:36:09.738Z,11.98
2022-09-27T02:38:45.948Z,10.07
2022-09-27T02:41:23.955Z,13.05
2022-09-27T02:44:03.013Z,12.63
2022-09-27T02:47:00.218Z,10.73
2022-09-27T02:49:52.838Z,11.55
2022-09-27T02:52:57.405Z,10.75
2022-09-27T02:55:51.067Z,11.80
2022-09-27T02:58:59.698Z,10.07
2022-09-27T03:01:56.130Z,11.13
2022-09-27T03:04:41.196Z,11.70
2022-09-27T03:07:16.069Z,11.25
2022-09-27T03:09:52.640Z,10.32
2022-09-27T03:12:28.763Z,9.30
2022-09-27T03:15:03.238Z,10.10
2022-09-27T03:18:04.183Z,10.40
2022-09-27T03:20:56.554Z,11.32
2022-09-27T03:23:32.600Z,11.27
2022-09-27T03:26:10.731Z,11.00
2022-09-27T03:28:48.796Z,9.30
2022-09-27T03:31:23.022Z,10.32
2022-09-27T03:34:23.503Z,10.27
2022-09-27T03:36:57.652Z,11.45
2022-09-27T03:39:31.849Z,14.13
2022-09-27T03:42:06.211Z,10.68
2022-09-27T03:44:42.040Z,11.52
2022-09-27T03:47:16.093Z,10.32
2022-09-27T03:49:50.658Z,9.93
2022-09-27T03:52:24.786Z,12.18
2022-09-27T03:55:02.098Z,10.73
2022-09-27T03:57:37.350Z,9.80
2022-09-27T04:00:14.573Z,10.07
2022-09-27T04:02:48.889Z,9.27
2022-09-27T04:05:31.659Z,8.90
2022-09-27T04:08:19.112Z,11.38
2022-09-27T04:10:53.139Z,11.25
2022-09-27T04:13:27.188Z,8.70
2022-09-27T04:16:05.519Z,10.63
2022-09-27T04:19:01.733Z,9.98
2022-09-27T04:22:00.511Z,9.52
2022-09-27T04:24:34.486Z,10.82
2022-09-27T04:27:26.364Z,10.60
2022-09-27T04:30:00.401Z,10.77
2022-09-27T04:32:55.829Z,10.10
2022-09-27T04:36:10.485Z,9.60
2022-09-27T04:38:48.251Z,10.75
2022-09-27T04:41:28.486Z,10.80
2022-09-27T04:44:03.230Z,11.25
2022-09-27T04:46:37.449Z,9.60
2022-09-27T04:49:12.974Z,8.77
2022-09-27T04:51:47.268Z,9.63
2022-09-27T04:54:21.339Z,8.90
2022-09-27T04:57:05.454Z,8.95
2022-09-27T04:59:40.791Z,10.77
2022-09-27T05:02:15.076Z,12.82
2022-09-27T05:05:10.099Z,9.52
2022-09-27T05:07:47.034Z,11.07
2022-09-27T05:10:32.696Z,11.10
2022-09-27T05:13:06.950Z,12.88
2022-09-27T05:15:41.116Z,11.15
2022-09-27T05:18:37.311Z,16.88
2022-09-27T05:24:07.333Z,17.42
2022-09-27T05:26:42.076Z,16.90
2022-09-27T05:29:16.330Z,20.25
2022-09-27T05:31:55.661Z,16.92
2022-09-27T05:34:31.696Z,17.63
2022-09-27T05:37:07.420Z,28.27
2022-09-27T05:39:46.344Z,18.80
2022-09-27T05:42:21.654Z,20.05
2022-09-27T05:44:55.931Z,19.08
2022-09-27T05:47:30.565Z,19.25
2022-09-27T05:50:05.921Z,23.63
2022-09-27T05:52:41.556Z,20.30
2022-09-27T05:55:16.485Z,21.30
2022-09-27T05:57:59.001Z,22.35
2022-09-27T06:00:40.075Z,21.60
2022-09-27T06:03:34.084Z,26.58
2022-09-27T06:06:27.555Z,25.13
2022-09-27T06:09:05.999Z,22.70
2022-09-27T06:11:43.060Z,27.50
2022-09-27T06:14:21.027Z,21.73
2022-09-27T06:17:21.127Z,21.38
2022-09-27T06:19:55.721Z,22.17
2022-09-27T06:22:29.977Z,30.27
2022-09-27T06:25:09.900Z,23.55
2022-09-27T06:27:56.069Z,25.45
2022-09-27T06:30:34.400Z,29.27
2022-09-27T06:33:17.481Z,23.58
2022-09-27T06:35:57.803Z,26.75
2022-09-27T06:38:33.027Z,18.30
2022-09-27T06:41:16.689Z,22.70
2022-09-27T06:44:09.429Z,23.92
2022-09-27T06:46:43.492Z,21.15
2022-09-27T06:50:03.962Z,22.27
2022-09-27T06:52:38.427Z,19.23
2022-09-27T06:55:12.689Z,16.63
2022-09-27T06:58:05.726Z,18.02
2022-09-27T07:00:39.875Z,26.67
2022-09-27T07:03:41.740Z,17.25
2022-09-27T07:06:37.700Z,15.35
2022-09-27T07:09:23.035Z,19.63
2022-09-27T07:11:57.757Z,18.48
2022-09-27T07:14:34.322Z,16.45
2022-09-27T07:17:09.414Z,21.70
2022-09-27T07:19:47.500Z,19.35
2022-09-27T07:22:21.829Z,18.17
2022-09-27T07:25:02.077Z,20.88
2022-09-27T07:27:38.574Z,15.02
2022-09-27T07:30:18.055Z,13.75
2022-09-27T07:32:59.279Z,17.60
2022-09-27T07:35:33.992Z,15.13
2022-09-27T07:38:10.815Z,17.35
2022-09-27T07:40:45.484Z,20.48
2022-09-27T07:43:19.872Z,12.10
2022-09-27T07:45:58.192Z,18.88
2022-09-27T07:48:53.622Z,13.90
2022-09-27T07:51:46.361Z,12.50
2022-09-27T07:54:37.673Z,14.45
2022-09-27T07:57:24.335Z,13.85
2022-09-27T08:00:00.773Z,13.93
2022-09-27T08:02:36.668Z,14.35
2022-09-27T08:05:12.005Z,16.48
2022-09-27T08:07:46.240Z,19.20
2022-09-27T08:10:21.145Z,23.95
2022-09-27T08:12:55.267Z,27.23
2022-09-27T08:15:29.685Z,36.47
2022-09-27T08:18:06.424Z,38.20
2022-09-27T08:21:09.688Z,36.67
2022-09-27T08:23:54.231Z,31.67
2022-09-27T08:26:39.728Z,39.30
2022-09-27T08:29:27.087Z,40.63
2022-09-27T08:32:02.787Z,37.47
2022-09-27T08:34:38.756Z,42.10
2022-09-27T08:37:13.112Z,34.10
2022-09-27T08:39:48.227Z,32.47
2022-09-27T08:42:35.189Z,30.95
2022-09-27T08:45:17.976Z,30.83
2022-09-27T08:47:55.535Z,28.23
2022-09-27T08:50:38.937Z,27.65
2022-09-27T08:53:22.148Z,25.42
2022-09-27T08:55:58.683Z,22.42
2022-09-27T08:58:47.274Z,23.77
2022-09-27T09:01:31.617Z,22.88
2022-09-27T09:04:36.901Z,22.10
2022-09-27T09:07:23.354Z,21.42
2022-09-27T09:10:05.049Z,22.02
2022-09-27T09:12:53.529Z,22.27
2022-09-27T09:15:58.381Z,20.45
2022-09-27T09:18:53.588Z,18.20
2022-09-27T09:21:56.109Z,21.50
2022-09-27T09:24:51.631Z,18.88
2022-09-27T09:27:38.918Z,18.55
2022-09-27T09:30:21.891Z,19.63
2022-09-27T09:33:16.015Z,20.42
2022-09-27T09:35:58.941Z,17.50
2022-09-27T09:38:40.976Z,19.45
2022-09-27T09:41:24.045Z,19.55
2022-09-27T09:44:02.609Z,18.05
2022-09-27T09:46:45.381Z,21.17
2022-09-27T09:49:25.540Z,17.50
2022-09-27T09:52:08.723Z,17.50
2022-09-27T09:54:47.965Z,17.55
2022-09-27T09:57:27.062Z,16.52
2022-09-27T10:00:04.481Z,16.95
2022-09-27T10:02:52.481Z,16.00
2022-09-27T10:05:30.400Z,15.27
2022-09-27T10:08:17.028Z,15.45
2022-09-27T10:10:52.569Z,19.65
2022-09-27T10:13:46.378Z,15.63
2022-09-27T10:16:24.236Z,15.82
2022-09-27T10:19:04.104Z,14.77
2022-09-27T10:21:45.420Z,14.85
2022-09-27T10:24:21.325Z,16.52
2022-09-27T10:27:01.153Z,15.45
2022-09-27T10:29:40.403Z,15.35
2022-09-27T10:32:31.531Z,14.88
2022-09-27T10:35:38.307Z,13.05
2022-09-27T10:38:27.042Z,13.32
2022-09-27T10:41:24.939Z,13.43
2022-09-27T10:44:25.578Z,13.50
2022-09-27T10:47:23.020Z,12.93
2022-09-27T10:50:45.855Z,15.47
2022-09-27T10:53:34.086Z,12.30
2022-09-27T10:56:24.152Z,12.43
2022-09-27T10:59:00.174Z,13.52
2022-09-27T11:01:46.046Z,12.10
2022-09-27T11:04:31.789Z,12.07
2022-09-27T11:07:20.227Z,14.05
2022-09-27T11:10:25.298Z,10.57
2022-09-27T11:13:14.486Z,11.82
2022-09-27T11:16:06.510Z,10.68
2022-09-27T11:18:51.007Z,11.77
2022-09-27T11:24:27.221Z,14.35
2022-09-27T11:27:11.094Z,12.70
2022-09-27T11:30:02.591Z,13.40
2022-09-27T11:33:22.347Z,11.50
2022-09-27T11:36:06.413Z,13.38
2022-09-27T11:41:42.110Z,12.98
2022-09-27T11:44:37.964Z,11.52
2022-09-27T11:47:19.767Z,13.05
2022-09-27T11:50:20.947Z,11.65
2022-09-27T11:53:08.868Z,11.25
2022-09-27T11:55:51.275Z,11.95
2022-09-27T11:58:34.593Z,34.38
2022-09-27T12:01:28.883Z,11.25
2022-09-27T12:04:25.559Z,10.95
2022-09-27T12:07:07.061Z,13.93
2022-09-27T12:09:47.190Z,10.00
2022-09-27T12:12:25.765Z,11.10
2022-09-27T12:15:07.021Z,10.77
2022-09-27T12:17:45.658Z,11.90
2022-09-27T12:20:24.588Z,8.50
2022-09-27T12:23:03.180Z,10.57
2022-09-27T12:25:58.788Z,10.75
2022-09-27T12:28:42.356Z,10.65
2022-09-27T12:31:31.031Z,9.40
2022-09-27T12:34:19.870Z,12.10
2022-09-27T12:37:00.496Z,11.02
2022-09-27T12:39:44.081Z,10.45
2022-09-27T12:42:34.043Z,10.55
2022-09-27T12:45:15.411Z,9.70
2022-09-27T12:48:04.713Z,9.93
2022-09-27T12:50:44.371Z,9.73
2022-09-27T12:53:23.896Z,10.27
2022-09-27T12:56:33.891Z,11.00
2022-09-27T12:59:40.909Z,14.93
2022-09-27T13:03:11.174Z,11.38
2022-09-27T13:05:58.682Z,10.38
2022-09-27T13:08:54.196Z,10.68
2022-09-27T13:11:41.794Z,11.52
2022-09-27T13:14:20.831Z,11.90
2022-09-27T13:16:56.107Z,12.25
2022-09-27T13:19:44.281Z,12.02
2022-09-27T13:22:38.751Z,11.52
2022-09-27T13:25:54.850Z,12.73
2022-09-27T13:29:02.210Z,18.00
2022-09-27T13:32:22.764Z,11.35
2022-09-27T13:35:20.294Z,12.88
2022-09-27T13:38:00.265Z,11.48
2022-09-27T13:40:45.739Z,12.90
2022-09-27T13:43:59.254Z,12.18
2022-09-27T13:46:53.381Z,12.85
2022-09-27T13:49:32.955Z,11.90
2022-09-27T13:52:23.605Z,12.20
2022-09-27T13:55:41.730Z,12.43
2022-09-27T13:58:45.165Z,14.73
2022-09-27T14:01:46.875Z,13.65
2022-09-27T14:04:27.105Z,11.82
2022-09-27T14:07:04.059Z,15.23
2022-09-27T14:09:42.597Z,16.02
2022-09-27T14:12:41.199Z,13.55
2022-09-27T14:15:22.781Z,22.48
2022-09-27T14:17:58.975Z,19.27
2022-09-27T14:20:40.793Z,12.90
2022-09-27T14:23:26.993Z,57.88
2022-09-27T14:26:03.813Z,82.88
2022-09-27T14:28:43.795Z,54.03
2022-09-27T14:31:29.608Z,78.60
2022-09-27T14:34:10.039Z,112.07
2022-09-27T14:37:04.657Z,89.03
2022-09-27T14:39:45.566Z,74.95
2022-09-27T14:42:39.310Z,90.15
2022-09-27T14:45:22.375Z,74.00
2022-09-27T14:47:56.389Z,75.65
2022-09-27T14:50:32.193Z,75.68
2022-09-27T14:53:23.359Z,70.90
2022-09-27T14:55:58.586Z,58.03
2022-09-27T14:58:46.999Z,54.88
2022-09-27T15:01:27.024Z,55.90
2022-09-27T15:04:07.936Z,47.88
2022-09-27T15:06:43.844Z,46.25
2022-09-27T15:09:19.871Z,52.13
2022-09-27T15:11:57.096Z,49.38
2022-09-27T15:14:34.604Z,25.75
2022-09-27T15:17:15.763Z,36.47
2022-09-27T15:20:04.772Z,37.30
2022-09-27T15:22:45.195Z,37.13
2022-09-27T15:25:34.963Z,34.92
2022-09-27T15:28:18.172Z,36.17
2022-09-27T15:30:56.971Z,36.58
2022-09-27T15:33:34.035Z,25.65
2022-09-27T15:36:10.587Z,28.52
2022-09-27T15:38:47.571Z,23.42
2022-09-27T15:41:22.285Z,28.88
2022-09-27T15:43:56.497Z,26.17
2022-09-27T15:46:37.130Z,31.85
2022-09-27T15:49:24.059Z,25.48
2022-09-27T15:51:59.569Z,25.27
2022-09-27T15:54:35.971Z,21.13
2022-09-27T15:57:13.707Z,24.88
2022-09-27T15:59:47.614Z,25.50
2022-09-27T16:02:23.034Z,21.38
2022-09-27T16:04:57.054Z,29.73
2022-09-27T16:07:30.996Z,26.17
2022-09-27T16:10:11.475Z,25.60
2022-09-27T16:12:45.942Z,21.52
2022-09-27T16:15:20.239Z,27.80
2022-09-27T16:17:56.695Z,20.15
2022-09-27T16:20:32.278Z,24.08
2022-09-27T16:23:06.814Z,20.77
2022-09-27T16:25:41.026Z,23.35
2022-09-27T16:28:15.199Z,17.98
2022-09-27T16:30:49.355Z,18.63
2022-09-27T16:33:24.741Z,19.67
2022-09-27T16:35:58.934Z,21.52
2022-09-27T16:38:33.013Z,18.63
2022-09-27T16:41:07.357Z,16.95
2022-09-27T16:43:41.478Z,20.60
2022-09-27T16:46:19.337Z,22.55
2022-09-27T16:48:57.297Z,17.85
2022-09-27T16:51:48.900Z,15.73
2022-09-27T16:54:23.088Z,18.20
2022-09-27T16:56:57.812Z,16.48
2022-09-27T16:59:32.607Z,17.15
2022-09-27T17:02:07.277Z,15.45
2022-09-27T17:04:43.303Z,18.10
2022-09-27T17:07:17.708Z,16.92
2022-09-27T17:09:52.129Z,15.57
2022-09-27T17:12:26.580Z,18.75
2022-09-27T17:15:01.108Z,18.50
2022-09-27T17:17:35.281Z,16.15
2022-09-27T17:20:13.848Z,15.85
2022-09-27T17:22:48.582Z,14.40
2022-09-27T17:25:23.223Z,14.80
2022-09-27T17:27:58.880Z,14.38
2022-09-27T17:30:35.097Z,15.52
2022-09-27T17:33:09.882Z,17.45
2022-09-27T17:35:48.045Z,20.73
2022-09-27T17:38:22.768Z,17.10
2022-09-27T17:41:08.774Z,16.67
2022-09-27T17:43:46.834Z,25.15
2022-09-27T17:46:23.407Z,21.52
2022-09-27T17:49:15.426Z,14.38
2022-09-27T17:51:53.457Z,17.58
2022-09-27T17:54:28.524Z,20.88
2022-09-27T17:57:02.893Z,21.60
2022-09-27T17:59:37.176Z,21.40
2022-09-27T18:02:11.482Z,20.27
2022-09-27T18:04:46.493Z,16.70
2022-09-27T18:07:22.508Z,17.50
2022-09-27T18:09:57.342Z,16.73
2022-09-27T18:12:33.425Z,16.17
2022-09-27T18:15:09.349Z,24.17
2022-09-27T18:17:46.243Z,18.88
2022-09-27T18:20:20.854Z,15.80
2022-09-27T18:22:57.051Z,23.00
2022-09-27T18:25:39.419Z,25.13
2022-09-27T18:28:14.876Z,15.98
2022-09-27T18:30:50.427Z,19.42
2022-09-27T18:33:25.738Z,17.25
2022-09-27T18:36:05.441Z,15.50
2022-09-27T18:38:41.847Z,13.50
2022-09-27T18:41:19.237Z,17.08
2022-09-27T18:43:57.354Z,14.95
2022-09-27T18:46:35.943Z,13.02
2022-09-27T18:49:12.627Z,19.48
2022-09-27T18:51:47.619Z,14.45
2022-09-27T18:54:24.133Z,15.27
2022-09-27T18:57:00.541Z,13.48
2022-09-27T18:59:35.742Z,18.88
2022-09-27T19:02:12.489Z,14.13
2022-09-27T19:04:46.786Z,14.50
2022-09-27T19:07:21.077Z,12.75
2022-09-27T19:09:56.747Z,14.73
2022-09-27T19:12:30.982Z,20.27
2022-09-27T19:15:05.989Z,13.65
2022-09-27T19:17:40.639Z,14.40
2022-09-27T19:20:15.521Z,13.32
2022-09-27T19:22:49.812Z,14.07
2022-09-27T19:25:25.399Z,18.58
2022-09-27T19:27:59.615Z,18.88
2022-09-27T19:30:34.013Z,15.23
2022-09-27T19:33:08.097Z,16.92
2022-09-27T19:35:42.469Z,14.63
2022-09-27T19:38:16.552Z,15.55
2022-09-27T19:40:56.468Z,13.60
2022-09-27T19:43:31.215Z,14.65
2022-09-27T19:46:06.358Z,15.77
2022-09-27T19:48:40.895Z,14.30
2022-09-27T19:51:17.011Z,14.70
2022-09-27T19:53:51.993Z,13.88
2022-09-27T19:56:27.811Z,15.32
2022-09-27T19:59:06.894Z,17.23
2022-09-27T20:01:42.208Z,15.05
2022-09-27T20:04:16.369Z,14.27
2022-09-27T20:06:50.454Z,16.52
2022-09-27T20:09:25.081Z,15.38
2022-09-27T20:12:00.566Z,13.13
2022-09-27T20:14:34.970Z,16.15
2022-09-27T20:17:09.707Z,13.40
2022-09-27T20:19:44.056Z,13.25
2022-09-27T20:22:18.094Z,15.88
2022-09-27T20:24:52.194Z,11.48
2022-09-27T20:27:27.618Z,13.60
2022-09-27T20:30:02.787Z,10.02
2022-09-27T20:32:37.249Z,12.45
2022-09-27T20:35:11.682Z,12.82
2022-09-27T20:37:45.677Z,11.52
2022-09-27T20:40:19.822Z,12.63
2022-09-27T20:42:55.134Z,11.95
2022-09-27T20:45:29.101Z,13.73
2022-09-27T20:48:03.413Z,12.40
2022-09-27T20:50:37.318Z,13.48
2022-09-27T20:53:11.603Z,12.32
2022-09-27T20:55:45.464Z,12.70
2022-09-27T21:00:54.511Z,12.38
2022-09-27T21:03:28.387Z,12.75
2022-09-27T21:06:02.532Z,16.33
2022-09-27T21:08:36.516Z,12.43
2022-09-27T21:11:12.777Z,12.85
2022-09-27T21:13:49.517Z,11.18
2022-09-27T21:16:25.388Z,17.65
2022-09-27T21:18:59.689Z,14.23
2022-09-27T21:21:33.593Z,9.90
2022-09-27T21:26:41.157Z,11.98
2022-09-27T21:29:16.927Z,10.93
2022-09-27T21:31:50.898Z,10.30
2022-09-27T21:34:24.745Z,10.43
2022-09-27T21:39:32.768Z,11.13
2022-09-27T21:42:07.412Z,12.02
2022-09-27T21:44:43.182Z,9.65
2022-09-27T21:47:17.097Z,10.20
2022-09-27T21:49:51.061Z,9.20
2022-09-27T21:52:25.923Z,9.23
2022-09-27T21:55:00.067Z,9.90
2022-09-27T21:57:33.999Z,13.25
2022-09-27T22:00:11.473Z,10.18
2022-09-27T22:02:45.437Z,11.77
2022-09-27T22:05:20.596Z,11.10
2022-09-27T22:07:54.585Z,8.65
2022-09-27T22:10:28.939Z,10.38
2022-09-27T22:13:03.129Z,10.00
2022-09-27T22:15:39.568Z,7.72
2022-09-27T22:18:13.714Z,8.82
2022-09-27T22:20:48.195Z,7.45
2022-09-27T22:23:22.131Z,9.02
2022-09-27T22:25:56.238Z,8.68
2022-09-27T22:28:30.193Z,7.25
2022-09-27T22:31:07.679Z,7.57
2022-09-27T22:33:41.969Z,9.35
2022-09-27T22:36:16.165Z,7.97
2022-09-27T22:38:51.756Z,7.32
2022-09-27T22:41:26.416Z,7.22
2022-09-27T22:44:01.596Z,7.72
2022-09-27T22:46:37.974Z,6.95
2022-09-27T22:49:12.276Z,7.22
2022-09-27T22:51:46.613Z,11.13
2022-09-27T22:54:21.539Z,7.68
2022-09-27T22:56:57.562Z,6.97
2022-09-27T22:59:31.842Z,5.85
2022-09-27T23:02:07.276Z,6.28
2022-09-27T23:04:42.072Z,7.45
2022-09-27T23:07:16.124Z,7.95
2022-09-27T23:09:50.480Z,7.07
2022-09-27T23:12:24.778Z,6.63
2022-09-27T23:14:59.061Z,7.00
2022-09-27T23:17:34.791Z,5.90
2022-09-27T23:20:09.792Z,5.28
2022-09-27T23:22:43.764Z,7.22
2022-09-27T23:25:18.044Z,6.90
2022-09-27T23:27:53.019Z,5.00
2022-09-27T23:30:29.147Z,6.10
2022-09-27T23:33:04.572Z,4.80
2022-09-27T23:35:38.569Z,5.75
2022-09-27T23:38:13.913Z,5.80
2022-09-27T23:40:48.440Z,5.78
2022-09-27T23:43:22.426Z,5.13
2022-09-27T23:45:57.545Z,5.32
2022-09-27T23:48:33.152Z,5.57
2022-09-27T23:51:09.123Z,5.43
2022-09-27T23:53:44.655Z,6.25
2022-09-27T23:56:18.959Z,6.78
2022-09-27T23:58:54.381Z,5.18
